Huvudsida
METAR-TAF:

METAR-TAF

Flygplatser :

Stockholm-Bromma flygplats

Stockholm, Sverige

latitud: 59-21N, longitud: 017-57E, höjd: 14 m

Aktuellt väderrapport

Denna rapport gjordes för 25 minuter sedan, klockan 00:50 UTC
Vind 8 kt från nordväst
Temperatur -1°C
Fuktighet 74%
Tryck 1008 hPa
Sikt 10 km eller mer

METAR: ESSB 200050Z AUTO 32008KT 9999 FEW024/// BKN053/// OVC066/// M01/M05 Q1008

Tid: 03:15 (01:15 UTC)

Väderprognos

Denna rapport gjordes för 7 timmar och 45 minuter sedan, klockan 17:30 UTC
Prognos gäller från 19 kl. 18 UTC till 19 kl. 21 UTC
Vind 7 kt från nord
Sikt 10 km eller mer
Brutna moln på en höjd av 4500 ft

TAF: ESSB 191730Z 1918/1921 36007KT 9999 BKN045

Aktuella väderrapporter och prognoser från 4000 flygplatser (METAR- och TAF-rapporter).

De tillgängliga stationerna syns som gula och röda prickar på kartan.

För musen över prickarna för att se namnen på stationerna.

Klicka sedan för att få väderrapporter och prognoser.

För att ändra kartan: Klicka på de gröna knapparna med ett svart kors på för att zooma in; den gröna knappen med ett streck på för att zooma ut; eller på de gröna pilarna för angränsande kartor.


METAR-TAF: